sensor_id;sensor_type;location;lat;lon;timestamp;pressure;altitude;pressure_sealevel;temperature;humidity
63194;BME280;49289;51.670;5.624;2022-12-07T00:00:12;101976.55;;;10.39;64.47
63194;BME280;49289;51.670;5.624;2022-12-07T00:01:59;101980.19;;;10.16;64.86
63194;BME280;49289;51.670;5.624;2022-12-07T00:03:47;101979.31;;;10.15;64.82
63194;BME280;49289;51.670;5.624;2022-12-07T00:05:33;101964.36;;;10.18;64.73
63194;BME280;49289;51.670;5.624;2022-12-07T00:07:20;101975.20;;;10.50;63.90
63194;BME280;49289;51.670;5.624;2022-12-07T00:09:59;101955.94;;;10.51;63.38
63194;BME280;49289;51.670;5.624;2022-12-07T00:11:48;101970.58;;;10.69;63.08
63194;BME280;49289;51.670;5.624;2022-12-07T00:13:35;101967.57;;;10.68;62.91
63194;BME280;49289;51.670;5.624;2022-12-07T00:15:23;101967.59;;;10.59;62.93
63194;BME280;49289;51.670;5.624;2022-12-07T00:17:11;101956.63;;;10.56;62.91
63194;BME280;49289;51.670;5.624;2022-12-07T00:18:59;101948.95;;;10.64;62.63
63194;BME280;49289;51.670;5.624;2022-12-07T00:20:47;101952.01;;;10.54;62.85
63194;BME280;49289;51.670;5.624;2022-12-07T00:22:37;101951.84;;;10.55;62.78
63194;BME280;49289;51.670;5.624;2022-12-07T00:24:25;101962.42;;;10.54;62.97
63194;BME280;49289;51.670;5.624;2022-12-07T00:26:16;101963.66;;;10.40;63.29
63194;BME280;49289;51.670;5.624;2022-12-07T00:28:04;101966.77;;;10.16;64.11
63194;BME280;49289;51.670;5.624;2022-12-07T00:29:53;101950.27;;;10.16;63.83
63194;BME280;49289;51.670;5.624;2022-12-07T00:31:43;101943.81;;;9.78;64.79
63194;BME280;49289;51.670;5.624;2022-12-07T00:33:30;101943.22;;;9.95;64.49
63194;BME280;49289;51.670;5.624;2022-12-07T00:35:19;101942.09;;;10.16;63.76
63194;BME280;49289;51.670;5.624;2022-12-07T00:37:07;101952.16;;;10.36;63.48
63194;BME280;49289;51.670;5.624;2022-12-07T00:38:56;101938.06;;;10.26;63.50
63194;BME280;49289;51.670;5.624;2022-12-07T00:40:43;101940.27;;;9.60;64.66
63194;BME280;49289;51.670;5.624;2022-12-07T00:42:33;101944.52;;;9.98;64.31
63194;BME280;49289;51.670;5.624;2022-12-07T00:44:22;101939.69;;;10.06;63.87
63194;BME280;49289;51.670;5.624;2022-12-07T00:46:08;101944.11;;;9.94;63.57
63194;BME280;49289;51.670;5.624;2022-12-07T00:47:56;101958.11;;;9.87;64.67
63194;BME280;49289;51.670;5.624;2022-12-07T00:49:44;101956.40;;;9.96;64.27
63194;BME280;49289;51.670;5.624;2022-12-07T00:51:32;101935.84;;;9.79;64.58
63194;BME280;49289;51.670;5.624;2022-12-07T00:53:19;101940.67;;;9.65;65.08
63194;BME280;49289;51.670;5.624;2022-12-07T00:55:07;101953.97;;;9.89;64.94
63194;BME280;49289;51.670;5.624;2022-12-07T00:56:55;101956.02;;;9.83;65.07
63194;BME280;49289;51.670;5.624;2022-12-07T00:58:43;101940.60;;;10.00;64.34
63194;BME280;49289;51.670;5.624;2022-12-07T01:00:31;101934.45;;;10.09;64.07
63194;BME280;49289;51.670;5.624;2022-12-07T01:02:18;101933.33;;;10.04;64.09
63194;BME280;49289;51.670;5.624;2022-12-07T01:04:08;101929.55;;;9.92;64.41
63194;BME280;49289;51.670;5.624;2022-12-07T01:06:03;101952.25;;;9.75;64.71
63194;BME280;49289;51.670;5.624;2022-12-07T01:07:48;101949.16;;;10.08;64.25
63194;BME280;49289;51.670;5.624;2022-12-07T01:09:35;101928.30;;;10.15;63.72
63194;BME280;49289;51.670;5.624;2022-12-07T01:11:25;101946.89;;;10.02;64.24
63194;BME280;49289;51.670;5.624;2022-12-07T01:13:11;101933.06;;;9.85;64.50
63194;BME280;49289;51.670;5.624;2022-12-07T01:15:01;101929.93;;;9.96;64.16
63194;BME280;49289;51.670;5.624;2022-12-07T01:16:49;101946.75;;;10.23;63.56
63194;BME280;49289;51.670;5.624;2022-12-07T01:20:25;101936.36;;;9.96;63.18
63194;BME280;49289;51.670;5.624;2022-12-07T01:22:13;101953.88;;;10.29;62.99
63194;BME280;49289;51.670;5.624;2022-12-07T01:24:03;101938.93;;;9.85;64.00
63194;BME280;49289;51.670;5.624;2022-12-07T01:25:59;101943.27;;;9.43;65.25
63194;BME280;49289;51.670;5.624;2022-12-07T01:27:47;101958.42;;;9.81;64.56
63194;BME280;49289;51.670;5.624;2022-12-07T01:29:34;101947.64;;;9.58;64.73
63194;BME280;49289;51.670;5.624;2022-12-07T01:31:23;101959.58;;;9.59;65.36
63194;BME280;49289;51.670;5.624;2022-12-07T01:33:10;101957.00;;;9.12;66.71
63194;BME280;49289;51.670;5.624;2022-12-07T01:35:00;101958.64;;;9.67;65.29
63194;BME280;49289;51.670;5.624;2022-12-07T01:36:48;101933.58;;;9.70;64.62
63194;BME280;49289;51.670;5.624;2022-12-07T01:38:38;101930.19;;;9.54;64.83
63194;BME280;49289;51.670;5.624;2022-12-07T01:40:26;101934.92;;;9.48;65.34
63194;BME280;49289;51.670;5.624;2022-12-07T01:42:14;101949.20;;;9.75;64.54
63194;BME280;49289;51.670;5.624;2022-12-07T01:44:26;101948.73;;;9.28;66.11
63194;BME280;49289;51.670;5.624;2022-12-07T01:46:12;101950.07;;;9.30;66.45
63194;BME280;49289;51.670;5.624;2022-12-07T01:47:59;101929.30;;;9.54;65.21
63194;BME280;49289;51.670;5.624;2022-12-07T01:49:46;101944.98;;;9.63;65.13
63194;BME280;49289;51.670;5.624;2022-12-07T01:51:33;101946.43;;;9.79;64.62
63194;BME280;49289;51.670;5.624;2022-12-07T01:53:21;101931.91;;;9.58;64.36
63194;BME280;49289;51.670;5.624;2022-12-07T01:55:12;101933.86;;;9.64;64.33
63194;BME280;49289;51.670;5.624;2022-12-07T01:56:58;101935.93;;;9.39;65.26
63194;BME280;49289;51.670;5.624;2022-12-07T01:58:46;101952.45;;;9.39;65.70
63194;BME280;49289;51.670;5.624;2022-12-07T02:00:35;101938.23;;;9.63;64.52
63194;BME280;49289;51.670;5.624;2022-12-07T02:02:24;101947.33;;;9.53;64.89
63194;BME280;49289;51.670;5.624;2022-12-07T02:04:10;101938.67;;;8.99;65.77
63194;BME280;49289;51.670;5.624;2022-12-07T02:05:58;101948.74;;;9.19;66.08
63194;BME280;49289;51.670;5.624;2022-12-07T02:07:47;101932.20;;;9.38;65.02
63194;BME280;49289;51.670;5.624;2022-12-07T02:09:35;101932.77;;;9.35;64.81
63194;BME280;49289;51.670;5.624;2022-12-07T02:11:24;101943.52;;;9.77;64.23
63194;BME280;49289;51.670;5.624;2022-12-07T02:13:13;101942.11;;;9.58;64.62
63194;BME280;49289;51.670;5.624;2022-12-07T02:15:00;101937.80;;;9.19;65.61
63194;BME280;49289;51.670;5.624;2022-12-07T02:16:52;101943.20;;;9.54;64.76
63194;BME280;49289;51.670;5.624;2022-12-07T02:18:45;101928.70;;;9.67;63.79
63194;BME280;49289;51.670;5.624;2022-12-07T02:20:35;101930.73;;;9.57;64.23
63194;BME280;49289;51.670;5.624;2022-12-07T02:22:30;101945.85;;;9.66;64.33
63194;BME280;49289;51.670;5.624;2022-12-07T02:24:42;101938.47;;;9.86;63.45
63194;BME280;49289;51.670;5.624;2022-12-07T02:26:51;101933.91;;;9.69;63.62
63194;BME280;49289;51.670;5.624;2022-12-07T02:30:28;101933.98;;;9.68;63.38
63194;BME280;49289;51.670;5.624;2022-12-07T02:32:17;101949.78;;;9.66;63.51
63194;BME280;49289;51.670;5.624;2022-12-07T02:34:07;101933.14;;;9.81;63.05
63194;BME280;49289;51.670;5.624;2022-12-07T02:35:56;101930.39;;;9.87;62.70
63194;BME280;49289;51.670;5.624;2022-12-07T02:37:43;101928.21;;;9.92;62.34
63194;BME280;49289;51.670;5.624;2022-12-07T02:39:33;101932.14;;;9.92;62.33
63194;BME280;49289;51.670;5.624;2022-12-07T02:41:22;101924.29;;;9.81;62.55
63194;BME280;49289;51.670;5.624;2022-12-07T02:43:11;101936.50;;;10.00;62.20
63194;BME280;49289;51.670;5.624;2022-12-07T02:44:57;101930.62;;;10.01;62.03
63194;BME280;49289;51.670;5.624;2022-12-07T02:46:47;101915.91;;;9.92;61.79
63194;BME280;49289;51.670;5.624;2022-12-07T02:50:19;101922.33;;;9.79;62.30
63194;BME280;49289;51.670;5.624;2022-12-07T02:52:06;101917.10;;;9.83;61.98
63194;BME280;49289;51.670;5.624;2022-12-07T02:53:53;101936.17;;;9.95;61.74
63194;BME280;49289;51.670;5.624;2022-12-07T02:55:40;101939.19;;;9.93;61.57
63194;BME280;49289;51.670;5.624;2022-12-07T02:57:38;101936.83;;;9.86;61.43
63194;BME280;49289;51.670;5.624;2022-12-07T02:59:29;101936.80;;;9.83;61.38
63194;BME280;49289;51.670;5.624;2022-12-07T03:01:19;101941.75;;;9.78;61.40
63194;BME280;49289;51.670;5.624;2022-12-07T03:03:06;101944.16;;;9.81;61.46
63194;BME280;49289;51.670;5.624;2022-12-07T03:04:56;101947.61;;;9.69;62.05
63194;BME280;49289;51.670;5.624;2022-12-07T03:06:43;101926.05;;;9.74;62.01
63194;BME280;49289;51.670;5.624;2022-12-07T03:08:35;101927.00;;;9.74;62.34
63194;BME280;49289;51.670;5.624;2022-12-07T03:10:24;101931.83;;;9.89;62.10
63194;BME280;49289;51.670;5.624;2022-12-07T03:12:12;101930.92;;;9.95;62.06
63194;BME280;49289;51.670;5.624;2022-12-07T03:14:00;101930.89;;;10.00;62.04
63194;BME280;49289;51.670;5.624;2022-12-07T03:15:50;101951.69;;;9.56;63.24
63194;BME280;49289;51.670;5.624;2022-12-07T03:17:36;101945.04;;;9.22;64.57
63194;BME280;49289;51.670;5.624;2022-12-07T03:19:22;101935.46;;;9.56;63.63
63194;BME280;49289;51.670;5.624;2022-12-07T03:21:11;101930.16;;;9.73;62.89
63194;BME280;49289;51.670;5.624;2022-12-07T03:22:59;101934.79;;;9.79;62.76
63194;BME280;49289;51.670;5.624;2022-12-07T03:24:50;101928.87;;;9.65;62.60
63194;BME280;49289;51.670;5.624;2022-12-07T03:26:36;101946.01;;;9.58;63.60
63194;BME280;49289;51.670;5.624;2022-12-07T03:28:24;101940.33;;;9.47;63.38
63194;BME280;49289;51.670;5.624;2022-12-07T03:30:14;101939.25;;;9.59;63.50
63194;BME280;49289;51.670;5.624;2022-12-07T03:32:01;101942.53;;;9.57;63.81
63194;BME280;49289;51.670;5.624;2022-12-07T03:33:49;101935.48;;;9.60;63.83
63194;BME280;49289;51.670;5.624;2022-12-07T03:35:38;101909.33;;;9.50;63.43
63194;BME280;49289;51.670;5.624;2022-12-07T03:37:26;101930.41;;;9.85;63.14
63194;BME280;49289;51.670;5.624;2022-12-07T03:39:16;101930.56;;;9.80;62.95
63194;BME280;49289;51.670;5.624;2022-12-07T03:41:02;101909.66;;;9.82;63.01
63194;BME280;49289;51.670;5.624;2022-12-07T03:42:48;101908.33;;;9.94;62.64
63194;BME280;49289;51.670;5.624;2022-12-07T03:44:38;101917.85;;;10.04;62.62
63194;BME280;49289;51.670;5.624;2022-12-07T03:46:31;101909.77;;;10.13;62.51
63194;BME280;49289;51.670;5.624;2022-12-07T03:48:20;101925.52;;;10.24;62.52
63194;BME280;49289;51.670;5.624;2022-12-07T03:50:07;101929.92;;;10.27;62.39
63194;BME280;49289;51.670;5.624;2022-12-07T03:51:54;101928.39;;;10.32;62.33
63194;BME280;49289;51.670;5.624;2022-12-07T03:53:42;101913.37;;;10.25;62.33
63194;BME280;49289;51.670;5.624;2022-12-07T03:55:29;101910.61;;;10.10;62.69
63194;BME280;49289;51.670;5.624;2022-12-07T03:57:17;101913.12;;;10.17;62.64
63194;BME280;49289;51.670;5.624;2022-12-07T03:59:05;101929.65;;;10.40;62.28
63194;BME280;49289;51.670;5.624;2022-12-07T04:00:55;101916.84;;;10.31;62.28
63194;BME280;49289;51.670;5.624;2022-12-07T04:02:45;101908.61;;;10.30;62.34
63194;BME280;49289;51.670;5.624;2022-12-07T04:04:34;101925.52;;;10.48;62.20
63194;BME280;49289;51.670;5.624;2022-12-07T04:06:23;101928.73;;;10.39;62.33
63194;BME280;49289;51.670;5.624;2022-12-07T04:08:10;101908.10;;;10.42;62.17
63194;BME280;49289;51.670;5.624;2022-12-07T04:09:57;101924.14;;;10.49;62.11
63194;BME280;49289;51.670;5.624;2022-12-07T04:11:47;101908.50;;;10.42;61.97
63194;BME280;49289;51.670;5.624;2022-12-07T04:13:35;101907.00;;;10.49;61.82
63194;BME280;49289;51.670;5.624;2022-12-07T04:15:23;101912.36;;;10.58;61.63
63194;BME280;49289;51.670;5.624;2022-12-07T04:17:13;101912.00;;;10.53;61.25
63194;BME280;49289;51.670;5.624;2022-12-07T04:19:02;101909.62;;;10.50;61.32
63194;BME280;49289;51.670;5.624;2022-12-07T04:20:50;101922.78;;;10.55;61.30
63194;BME280;49289;51.670;5.624;2022-12-07T04:22:39;101912.23;;;10.48;61.48
63194;BME280;49289;51.670;5.624;2022-12-07T04:24:27;101925.20;;;10.57;61.38
63194;BME280;49289;51.670;5.624;2022-12-07T04:26:15;101922.91;;;10.47;61.50
63194;BME280;49289;51.670;5.624;2022-12-07T04:28:05;101921.57;;;10.45;61.56
63194;BME280;49289;51.670;5.624;2022-12-07T04:29:54;101933.19;;;10.55;61.51
63194;BME280;49289;51.670;5.624;2022-12-07T04:31:42;101937.08;;;10.57;61.49
63194;BME280;49289;51.670;5.624;2022-12-07T04:33:29;101917.09;;;10.53;61.56
63194;BME280;49289;51.670;5.624;2022-12-07T04:35:20;101909.55;;;10.56;61.58
63194;BME280;49289;51.670;5.624;2022-12-07T04:37:09;101910.06;;;10.58;61.59
63194;BME280;49289;51.670;5.624;2022-12-07T04:38:58;101909.80;;;10.61;61.46
63194;BME280;49289;51.670;5.624;2022-12-07T04:40:46;101920.80;;;10.69;61.39
63194;BME280;49289;51.670;5.624;2022-12-07T04:42:34;101900.83;;;10.57;61.47
63194;BME280;49289;51.670;5.624;2022-12-07T04:44:21;101903.80;;;10.56;61.57
63194;BME280;49289;51.670;5.624;2022-12-07T04:46:10;101899.14;;;10.59;61.38
63194;BME280;49289;51.670;5.624;2022-12-07T04:47:58;101899.28;;;10.55;61.39
63194;BME280;49289;51.670;5.624;2022-12-07T04:49:45;101894.72;;;10.55;61.16
63194;BME280;49289;51.670;5.624;2022-12-07T04:51:33;101893.59;;;10.51;61.17
63194;BME280;49289;51.670;5.624;2022-12-07T04:53:22;101910.16;;;10.54;61.02
63194;BME280;49289;51.670;5.624;2022-12-07T04:55:10;101911.73;;;10.50;60.79
63194;BME280;49289;51.670;5.624;2022-12-07T04:56:58;101894.88;;;10.31;60.95
63194;BME280;49289;51.670;5.624;2022-12-07T04:58:48;101894.48;;;10.22;61.05
63194;BME280;49289;51.670;5.624;2022-12-07T05:00:36;101907.49;;;10.25;61.00
63194;BME280;49289;51.670;5.624;2022-12-07T05:02:23;101904.72;;;10.23;60.99
63194;BME280;49289;51.670;5.624;2022-12-07T05:04:12;101904.91;;;10.09;61.34
63194;BME280;49289;51.670;5.624;2022-12-07T05:06:00;101889.08;;;10.05;61.28
63194;BME280;49289;51.670;5.624;2022-12-07T05:07:48;101887.36;;;10.08;61.26
63194;BME280;49289;51.670;5.624;2022-12-07T05:09:35;101908.43;;;10.17;61.09
63194;BME280;49289;51.670;5.624;2022-12-07T05:11:22;101907.33;;;10.19;61.07
63194;BME280;49289;51.670;5.624;2022-12-07T05:13:10;101911.66;;;10.19;61.16
63194;BME280;49289;51.670;5.624;2022-12-07T05:14:58;101893.87;;;10.11;61.30
63194;BME280;49289;51.670;5.624;2022-12-07T05:16:47;101915.28;;;10.24;61.25
63194;BME280;49289;51.670;5.624;2022-12-07T05:18:36;101896.03;;;10.06;61.50
63194;BME280;49289;51.670;5.624;2022-12-07T05:20:24;101892.59;;;10.06;61.47
63194;BME280;49289;51.670;5.624;2022-12-07T05:22:11;101888.38;;;10.12;61.27
63194;BME280;49289;51.670;5.624;2022-12-07T05:23:58;101909.14;;;10.13;61.43
63194;BME280;49289;51.670;5.624;2022-12-07T05:25:48;101893.09;;;10.03;61.35
63194;BME280;49289;51.670;5.624;2022-12-07T05:27:36;101891.47;;;10.00;61.21
63194;BME280;49289;51.670;5.624;2022-12-07T05:29:24;101893.94;;;10.04;61.05
63194;BME280;49289;51.670;5.624;2022-12-07T05:31:12;101894.56;;;9.91;61.20
63194;BME280;49289;51.670;5.624;2022-12-07T05:33:02;101896.36;;;9.93;60.87
63194;BME280;49289;51.670;5.624;2022-12-07T05:34:50;101897.41;;;9.88;60.90
63194;BME280;49289;51.670;5.624;2022-12-07T05:36:38;101916.61;;;9.83;61.43
63194;BME280;49289;51.670;5.624;2022-12-07T05:38:26;101916.01;;;9.69;62.02
63194;BME280;49289;51.670;5.624;2022-12-07T05:40:15;101912.80;;;9.76;62.00
63194;BME280;49289;51.670;5.624;2022-12-07T05:42:04;101895.52;;;9.68;62.03
63194;BME280;49289;51.670;5.624;2022-12-07T05:43:52;101892.30;;;9.80;61.76
63194;BME280;49289;51.670;5.624;2022-12-07T05:45:39;101906.28;;;9.90;61.88
63194;BME280;49289;51.670;5.624;2022-12-07T05:47:26;101911.23;;;9.66;62.46
63194;BME280;49289;51.670;5.624;2022-12-07T05:49:13;101909.01;;;9.65;62.84
63194;BME280;49289;51.670;5.624;2022-12-07T05:51:01;101891.25;;;9.78;62.51
63194;BME280;49289;51.670;5.624;2022-12-07T05:52:48;101887.06;;;9.77;62.40
63194;BME280;49289;51.670;5.624;2022-12-07T05:54:38;101881.59;;;9.76;62.50
63194;BME280;49289;51.670;5.624;2022-12-07T05:56:26;101890.77;;;9.95;62.01
63194;BME280;49289;51.670;5.624;2022-12-07T05:58:14;101890.81;;;9.94;61.87
63194;BME280;49289;51.670;5.624;2022-12-07T06:00:02;101881.58;;;9.84;61.59
63194;BME280;49289;51.670;5.624;2022-12-07T06:01:50;101879.88;;;9.84;61.36
63194;BME280;49289;51.670;5.624;2022-12-07T06:03:38;101896.08;;;9.90;61.10
63194;BME280;49289;51.670;5.624;2022-12-07T06:05:27;101897.68;;;9.84;61.03
63194;BME280;49289;51.670;5.624;2022-12-07T06:07:15;101883.53;;;9.73;60.99
63194;BME280;49289;51.670;5.624;2022-12-07T06:09:03;101881.05;;;9.65;60.88
63194;BME280;49289;51.670;5.624;2022-12-07T06:10:50;101898.03;;;9.73;60.95
63194;BME280;49289;51.670;5.624;2022-12-07T06:12:37;101890.80;;;9.63;61.27
63194;BME280;49289;51.670;5.624;2022-12-07T06:14:24;101889.67;;;9.64;61.11
63194;BME280;49289;51.670;5.624;2022-12-07T06:16:12;101892.14;;;9.61;60.93
63194;BME280;49289;51.670;5.624;2022-12-07T06:18:00;101893.39;;;9.59;60.81
63194;BME280;49289;51.670;5.624;2022-12-07T06:19:48;101898.36;;;9.55;60.68
63194;BME280;49289;51.670;5.624;2022-12-07T06:21:36;101888.19;;;9.39;60.68
63194;BME280;49289;51.670;5.624;2022-12-07T06:23:25;101905.58;;;9.41;60.51
63194;BME280;49289;51.670;5.624;2022-12-07T06:25:13;101904.55;;;9.33;60.68
63194;BME280;49289;51.670;5.624;2022-12-07T06:27:01;101889.26;;;9.18;60.65
63194;BME280;49289;51.670;5.624;2022-12-07T06:28:48;101903.70;;;9.20;60.67
63194;BME280;49289;51.670;5.624;2022-12-07T06:30:38;101887.91;;;9.06;60.55
63194;BME280;49289;51.670;5.624;2022-12-07T06:32:26;101905.55;;;9.15;60.56
63194;BME280;49289;51.670;5.624;2022-12-07T06:34:15;101892.78;;;9.07;60.66
63194;BME280;49289;51.670;5.624;2022-12-07T06:36:03;101889.89;;;9.11;61.08
63194;BME280;49289;51.670;5.624;2022-12-07T06:37:51;101910.34;;;9.25;61.07
63194;BME280;49289;51.670;5.624;2022-12-07T06:39:41;101898.06;;;9.19;61.58
63194;BME280;49289;51.670;5.624;2022-12-07T06:41:29;101894.98;;;9.25;61.50
63194;BME280;49289;51.670;5.624;2022-12-07T06:43:16;101913.14;;;9.30;61.94
63194;BME280;49289;51.670;5.624;2022-12-07T06:45:04;101892.58;;;9.29;61.92
63194;BME280;49289;51.670;5.624;2022-12-07T06:46:54;101893.95;;;9.30;62.13
63194;BME280;49289;51.670;5.624;2022-12-07T06:48:42;101885.41;;;9.27;62.16
63194;BME280;49289;51.670;5.624;2022-12-07T06:50:30;101892.05;;;9.16;62.98
63194;BME280;49289;51.670;5.624;2022-12-07T06:52:17;101900.53;;;9.32;62.61
63194;BME280;49289;51.670;5.624;2022-12-07T06:54:06;101891.55;;;9.31;62.48
63194;BME280;49289;51.670;5.624;2022-12-07T06:55:55;101890.59;;;9.35;62.41
63194;BME280;49289;51.670;5.624;2022-12-07T06:57:43;101884.23;;;9.37;62.19
63194;BME280;49289;51.670;5.624;2022-12-07T06:59:30;101892.19;;;9.40;62.14
63194;BME280;49289;51.670;5.624;2022-12-07T07:01:20;101894.19;;;9.38;62.34
63194;BME280;49289;51.670;5.624;2022-12-07T07:03:09;101892.96;;;9.43;62.18
63194;BME280;49289;51.670;5.624;2022-12-07T07:04:57;101907.83;;;9.47;61.93
63194;BME280;49289;51.670;5.624;2022-12-07T07:06:45;101894.04;;;9.32;62.08
63194;BME280;49289;51.670;5.624;2022-12-07T07:08:33;101892.55;;;9.37;62.05
63194;BME280;49289;51.670;5.624;2022-12-07T07:10:22;101911.42;;;9.38;62.33
63194;BME280;49289;51.670;5.624;2022-12-07T07:12:09;101910.48;;;9.45;62.18
63194;BME280;49289;51.670;5.624;2022-12-07T07:13:58;101892.30;;;9.47;61.91
63194;BME280;49289;51.670;5.624;2022-12-07T07:15:47;101891.72;;;9.42;61.79
63194;BME280;49289;51.670;5.624;2022-12-07T07:17:34;101891.27;;;9.47;61.72
63194;BME280;49289;51.670;5.624;2022-12-07T07:19:21;101914.53;;;9.59;61.53
63194;BME280;49289;51.670;5.624;2022-12-07T07:21:08;101915.83;;;9.56;61.57
63194;BME280;49289;51.670;5.624;2022-12-07T07:22:59;101899.08;;;9.45;61.52
63194;BME280;49289;51.670;5.624;2022-12-07T07:24:47;101896.62;;;9.44;61.64
63194;BME280;49289;51.670;5.624;2022-12-07T07:29:33;101898.97;;;9.58;61.40
63194;BME280;49289;51.670;5.624;2022-12-07T07:31:20;101902.23;;;9.52;61.38
63194;BME280;49289;51.670;5.624;2022-12-07T07:33:09;101901.78;;;9.52;61.41
63194;BME280;49289;51.670;5.624;2022-12-07T07:34:56;101907.16;;;9.54;61.55
63194;BME280;49289;51.670;5.624;2022-12-07T07:36:45;101921.44;;;9.63;61.41
63194;BME280;49289;51.670;5.624;2022-12-07T07:38:32;101909.86;;;9.46;61.32
63194;BME280;49289;51.670;5.624;2022-12-07T07:40:21;101908.64;;;9.47;61.29
63194;BME280;49289;51.670;5.624;2022-12-07T07:42:08;101911.64;;;9.44;61.09
63194;BME280;49289;51.670;5.624;2022-12-07T07:43:57;101898.63;;;9.30;61.30
63194;BME280;49289;51.670;5.624;2022-12-07T07:45:45;101917.42;;;9.39;61.26
63194;BME280;49289;51.670;5.624;2022-12-07T07:47:33;101916.70;;;9.39;61.28
63194;BME280;49289;51.670;5.624;2022-12-07T07:49:23;101903.35;;;9.28;61.18
63194;BME280;49289;51.670;5.624;2022-12-07T07:51:11;101922.30;;;9.38;61.16
63194;BME280;49289;51.670;5.624;2022-12-07T07:52:59;101900.69;;;9.33;61.02
63194;BME280;49289;51.670;5.624;2022-12-07T07:54:47;101909.64;;;9.29;61.04
63194;BME280;49289;51.670;5.624;2022-12-07T07:56:37;101901.72;;;9.28;61.08
63194;BME280;49289;51.670;5.624;2022-12-07T07:58:26;101925.03;;;9.36;61.22
63194;BME280;49289;51.670;5.624;2022-12-07T08:00:15;101925.71;;;9.38;61.29
63194;BME280;49289;51.670;5.624;2022-12-07T08:02:03;101913.40;;;9.18;61.88
63194;BME280;49289;51.670;5.624;2022-12-07T08:03:51;101909.48;;;9.27;61.63
63194;BME280;49289;51.670;5.624;2022-12-07T08:05:42;101909.48;;;9.26;61.96
63194;BME280;49289;51.670;5.624;2022-12-07T08:07:30;101909.80;;;9.32;61.93
63194;BME280;49289;51.670;5.624;2022-12-07T08:09:17;101924.41;;;9.48;61.97
63194;BME280;49289;51.670;5.624;2022-12-07T08:11:04;101909.27;;;9.44;61.96
63194;BME280;49289;51.670;5.624;2022-12-07T08:12:51;101922.61;;;9.57;61.81
63194;BME280;49289;51.670;5.624;2022-12-07T08:14:41;101909.16;;;9.49;61.72
63194;BME280;49289;51.670;5.624;2022-12-07T08:16:29;101905.98;;;9.48;61.71
63194;BME280;49289;51.670;5.624;2022-12-07T08:18:16;101920.33;;;9.64;61.71
63194;BME280;49289;51.670;5.624;2022-12-07T08:20:03;101920.16;;;9.74;61.44
63194;BME280;49289;51.670;5.624;2022-12-07T08:21:51;101922.04;;;9.78;61.39
63194;BME280;49289;51.670;5.624;2022-12-07T08:23:38;101925.88;;;9.86;61.40
63194;BME280;49289;51.670;5.624;2022-12-07T08:25:27;101912.70;;;9.86;61.42
63194;BME280;49289;51.670;5.624;2022-12-07T08:27:15;101919.58;;;10.00;61.46
63194;BME280;49289;51.670;5.624;2022-12-07T08:29:03;101910.42;;;9.80;61.63
63194;BME280;49289;51.670;5.624;2022-12-07T08:30:50;101929.94;;;9.95;61.92
63194;BME280;49289;51.670;5.624;2022-12-07T08:32:37;101913.23;;;9.84;61.88
63194;BME280;49289;51.670;5.624;2022-12-07T08:34:24;101936.22;;;9.98;61.71
63194;BME280;49289;51.670;5.624;2022-12-07T08:36:14;101920.81;;;9.96;61.89
63194;BME280;49289;51.670;5.624;2022-12-07T08:38:01;101939.02;;;9.97;62.09
63194;BME280;49289;51.670;5.624;2022-12-07T08:39:49;101924.71;;;10.03;61.79
63194;BME280;49289;51.670;5.624;2022-12-07T08:41:39;101922.70;;;10.00;61.79
63194;BME280;49289;51.670;5.624;2022-12-07T08:43:27;101919.33;;;9.90;62.12
63194;BME280;49289;51.670;5.624;2022-12-07T08:45:15;101923.25;;;9.99;61.88
63194;BME280;49289;51.670;5.624;2022-12-07T08:47:04;101941.52;;;10.15;61.72
63194;BME280;49289;51.670;5.624;2022-12-07T08:48:52;101927.66;;;10.04;61.90
63194;BME280;49289;51.670;5.624;2022-12-07T08:50:41;101922.51;;;9.98;62.21
63194;BME280;49289;51.670;5.624;2022-12-07T08:52:29;101938.53;;;10.21;62.03
63194;BME280;49289;51.670;5.624;2022-12-07T08:54:17;101934.12;;;10.23;62.17
63194;BME280;49289;51.670;5.624;2022-12-07T08:56:05;101929.20;;;10.39;61.72
63194;BME280;49289;51.670;5.624;2022-12-07T08:57:53;101931.39;;;10.49;61.65
63194;BME280;49289;51.670;5.624;2022-12-07T08:59:41;101926.57;;;10.39;61.72
63194;BME280;49289;51.670;5.624;2022-12-07T09:01:29;101929.78;;;10.44;61.60
63194;BME280;49289;51.670;5.624;2022-12-07T09:03:17;101937.03;;;10.18;61.89
63194;BME280;49289;51.670;5.624;2022-12-07T09:05:05;101921.45;;;9.91;62.72
63194;BME280;49289;51.670;5.624;2022-12-07T09:06:53;101917.58;;;10.18;62.83
63194;BME280;49289;51.670;5.624;2022-12-07T09:08:42;101931.14;;;10.70;62.14
63194;BME280;49289;51.670;5.624;2022-12-07T09:10:30;101918.88;;;10.80;61.97
63194;BME280;49289;51.670;5.624;2022-12-07T09:12:17;101904.91;;;11.09;61.70
63194;BME280;49289;51.670;5.624;2022-12-07T09:14:05;101916.05;;;11.32;61.21
63194;BME280;49289;51.670;5.624;2022-12-07T09:15:55;101916.12;;;11.55;60.09
63194;BME280;49289;51.670;5.624;2022-12-07T09:17:44;101929.73;;;11.86;59.32
63194;BME280;49289;51.670;5.624;2022-12-07T09:19:32;101931.70;;;11.76;59.07
63194;BME280;49289;51.670;5.624;2022-12-07T09:21:19;101926.49;;;11.68;58.67
63194;BME280;49289;51.670;5.624;2022-12-07T09:23:07;101916.77;;;11.35;59.32
63194;BME280;49289;51.670;5.624;2022-12-07T09:24:54;101932.20;;;10.77;60.39
63194;BME280;49289;51.670;5.624;2022-12-07T09:26:44;101916.11;;;11.17;59.76
63194;BME280;49289;51.670;5.624;2022-12-07T09:28:32;101930.86;;;10.72;60.64
63194;BME280;49289;51.670;5.624;2022-12-07T09:30:20;101919.54;;;10.75;60.94
63194;BME280;49289;51.670;5.624;2022-12-07T09:32:10;101917.92;;;10.26;61.23
63194;BME280;49289;51.670;5.624;2022-12-07T09:34:00;101925.55;;;10.43;61.73
63194;BME280;49289;51.670;5.624;2022-12-07T09:35:50;101925.45;;;10.34;61.38
63194;BME280;49289;51.670;5.624;2022-12-07T09:37:38;101925.86;;;10.74;61.09
63194;BME280;49289;51.670;5.624;2022-12-07T09:39:26;101924.28;;;10.33;61.41